sensor_id;sensor_type;location;lat;lon;timestamp;P1;durP1;ratioP1;P2;durP2;ratioP2
68212;SDS011;55035;47.792;8.724;2024-03-17T00:00:21;20.52;;;18.67;;
68212;SDS011;55035;47.792;8.724;2024-03-17T00:02:47;23.30;;;21.20;;
68212;SDS011;55035;47.792;8.724;2024-03-17T00:05:15;24.25;;;22.05;;
68212;SDS011;55035;47.792;8.724;2024-03-17T00:07:44;22.45;;;20.55;;
68212;SDS011;55035;47.792;8.724;2024-03-17T00:10:09;21.67;;;19.67;;
68212;SDS011;55035;47.792;8.724;2024-03-17T00:12:36;21.67;;;19.65;;
68212;SDS011;55035;47.792;8.724;2024-03-17T00:15:02;18.73;;;17.02;;
68212;SDS011;55035;47.792;8.724;2024-03-17T00:17:29;19.37;;;17.63;;
68212;SDS011;55035;47.792;8.724;2024-03-17T00:19:55;19.45;;;17.75;;
68212;SDS011;55035;47.792;8.724;2024-03-17T00:22:23;22.57;;;20.57;;
68212;SDS011;55035;47.792;8.724;2024-03-17T00:24:49;20.55;;;18.75;;
68212;SDS011;55035;47.792;8.724;2024-03-17T00:27:16;19.30;;;17.40;;
68212;SDS011;55035;47.792;8.724;2024-03-17T00:29:42;18.98;;;17.27;;
68212;SDS011;55035;47.792;8.724;2024-03-17T00:32:08;19.50;;;17.80;;
68212;SDS011;55035;47.792;8.724;2024-03-17T00:34:35;17.90;;;16.30;;
68212;SDS011;55035;47.792;8.724;2024-03-17T00:37:02;17.80;;;16.23;;
68212;SDS011;55035;47.792;8.724;2024-03-17T00:39:29;18.45;;;16.83;;
68212;SDS011;55035;47.792;8.724;2024-03-17T00:41:57;18.63;;;17.02;;
68212;SDS011;55035;47.792;8.724;2024-03-17T00:44:23;17.60;;;16.10;;
68212;SDS011;55035;47.792;8.724;2024-03-17T00:46:50;17.73;;;16.07;;
68212;SDS011;55035;47.792;8.724;2024-03-17T00:49:15;17.92;;;16.33;;
68212;SDS011;55035;47.792;8.724;2024-03-17T00:51:42;24.80;;;22.35;;
68212;SDS011;55035;47.792;8.724;2024-03-17T00:54:08;20.15;;;18.15;;
68212;SDS011;55035;47.792;8.724;2024-03-17T00:56:36;20.13;;;18.33;;
68212;SDS011;55035;47.792;8.724;2024-03-17T00:59:01;20.27;;;18.40;;
68212;SDS011;55035;47.792;8.724;2024-03-17T01:01:29;19.60;;;17.80;;
68212;SDS011;55035;47.792;8.724;2024-03-17T01:03:54;18.87;;;17.17;;
68212;SDS011;55035;47.792;8.724;2024-03-17T01:06:21;19.70;;;18.00;;
68212;SDS011;55035;47.792;8.724;2024-03-17T01:08:47;19.77;;;18.17;;
68212;SDS011;55035;47.792;8.724;2024-03-17T01:11:14;17.30;;;15.80;;
68212;SDS011;55035;47.792;8.724;2024-03-17T01:13:43;17.08;;;15.57;;
68212;SDS011;55035;47.792;8.724;2024-03-17T01:16:09;17.50;;;16.00;;
68212;SDS011;55035;47.792;8.724;2024-03-17T01:18:35;16.50;;;15.00;;
68212;SDS011;55035;47.792;8.724;2024-03-17T01:21:02;16.92;;;15.43;;
68212;SDS011;55035;47.792;8.724;2024-03-17T01:23:28;18.20;;;16.60;;
68212;SDS011;55035;47.792;8.724;2024-03-17T01:25:55;19.50;;;17.60;;
68212;SDS011;55035;47.792;8.724;2024-03-17T01:28:20;18.30;;;16.70;;
68212;SDS011;55035;47.792;8.724;2024-03-17T01:30:48;19.63;;;17.75;;
68212;SDS011;55035;47.792;8.724;2024-03-17T01:33:14;19.90;;;18.10;;
68212;SDS011;55035;47.792;8.724;2024-03-17T01:35:42;20.73;;;19.00;;
68212;SDS011;55035;47.792;8.724;2024-03-17T01:38:08;22.27;;;20.38;;
68212;SDS011;55035;47.792;8.724;2024-03-17T01:40:35;18.60;;;17.05;;
68212;SDS011;55035;47.792;8.724;2024-03-17T01:43:01;19.40;;;17.80;;
68212;SDS011;55035;47.792;8.724;2024-03-17T01:45:28;19.77;;;18.10;;
68212;SDS011;55035;47.792;8.724;2024-03-17T01:47:56;19.83;;;18.13;;
68212;SDS011;55035;47.792;8.724;2024-03-17T01:50:24;21.33;;;19.53;;
68212;SDS011;55035;47.792;8.724;2024-03-17T01:52:51;22.23;;;20.42;;
68212;SDS011;55035;47.792;8.724;2024-03-17T01:55:18;18.67;;;17.07;;
68212;SDS011;55035;47.792;8.724;2024-03-17T01:57:44;19.90;;;18.20;;
68212;SDS011;55035;47.792;8.724;2024-03-17T02:00:11;19.02;;;17.33;;
68212;SDS011;55035;47.792;8.724;2024-03-17T02:02:38;19.10;;;17.40;;
68212;SDS011;55035;47.792;8.724;2024-03-17T02:05:06;19.10;;;17.50;;
68212;SDS011;55035;47.792;8.724;2024-03-17T02:07:32;17.17;;;15.48;;
68212;SDS011;55035;47.792;8.724;2024-03-17T02:09:58;16.90;;;15.40;;
68212;SDS011;55035;47.792;8.724;2024-03-17T02:12:24;19.50;;;17.80;;
68212;SDS011;55035;47.792;8.724;2024-03-17T02:14:51;16.80;;;15.23;;
68212;SDS011;55035;47.792;8.724;2024-03-17T02:17:18;17.52;;;15.93;;
68212;SDS011;55035;47.792;8.724;2024-03-17T02:19:43;18.23;;;16.47;;
68212;SDS011;55035;47.792;8.724;2024-03-17T02:22:12;17.87;;;16.30;;
68212;SDS011;55035;47.792;8.724;2024-03-17T02:24:38;16.83;;;15.33;;
68212;SDS011;55035;47.792;8.724;2024-03-17T02:27:05;17.48;;;16.00;;
68212;SDS011;55035;47.792;8.724;2024-03-17T02:29:30;18.87;;;17.10;;
68212;SDS011;55035;47.792;8.724;2024-03-17T02:31:57;17.77;;;16.27;;
68212;SDS011;55035;47.792;8.724;2024-03-17T02:34:22;19.67;;;17.98;;
68212;SDS011;55035;47.792;8.724;2024-03-17T02:36:49;18.02;;;16.50;;
68212;SDS011;55035;47.792;8.724;2024-03-17T02:39:16;17.33;;;15.73;;
68212;SDS011;55035;47.792;8.724;2024-03-17T02:41:59;17.02;;;15.55;;
68212;SDS011;55035;47.792;8.724;2024-03-17T02:44:25;17.50;;;16.00;;
68212;SDS011;55035;47.792;8.724;2024-03-17T02:46:52;18.10;;;16.40;;
68212;SDS011;55035;47.792;8.724;2024-03-17T02:49:19;18.02;;;16.35;;
68212;SDS011;55035;47.792;8.724;2024-03-17T02:51:45;18.17;;;16.67;;
68212;SDS011;55035;47.792;8.724;2024-03-17T02:54:12;19.20;;;17.40;;
68212;SDS011;55035;47.792;8.724;2024-03-17T02:56:40;16.67;;;15.18;;
68212;SDS011;55035;47.792;8.724;2024-03-17T02:59:07;17.70;;;15.93;;
68212;SDS011;55035;47.792;8.724;2024-03-17T03:01:33;17.70;;;16.10;;
68212;SDS011;55035;47.792;8.724;2024-03-17T03:04:01;18.20;;;16.60;;
68212;SDS011;55035;47.792;8.724;2024-03-17T03:06:27;17.55;;;16.05;;
68212;SDS011;55035;47.792;8.724;2024-03-17T03:08:54;18.20;;;16.70;;
68212;SDS011;55035;47.792;8.724;2024-03-17T03:11:21;18.88;;;17.27;;
68212;SDS011;55035;47.792;8.724;2024-03-17T03:13:49;18.05;;;16.55;;
68212;SDS011;55035;47.792;8.724;2024-03-17T03:16:15;17.95;;;16.35;;
68212;SDS011;55035;47.792;8.724;2024-03-17T03:18:44;19.00;;;17.40;;
68212;SDS011;55035;47.792;8.724;2024-03-17T03:21:10;17.10;;;15.57;;
68212;SDS011;55035;47.792;8.724;2024-03-17T03:23:37;16.60;;;15.05;;
68212;SDS011;55035;47.792;8.724;2024-03-17T03:26:04;16.45;;;14.95;;
68212;SDS011;55035;47.792;8.724;2024-03-17T03:28:34;18.23;;;16.52;;
68212;SDS011;55035;47.792;8.724;2024-03-17T03:31:03;17.80;;;16.30;;
68212;SDS011;55035;47.792;8.724;2024-03-17T03:33:30;17.30;;;15.50;;
68212;SDS011;55035;47.792;8.724;2024-03-17T03:35:57;17.25;;;15.65;;
68212;SDS011;55035;47.792;8.724;2024-03-17T03:38:23;18.27;;;16.73;;
68212;SDS011;55035;47.792;8.724;2024-03-17T03:40:50;17.63;;;15.98;;
68212;SDS011;55035;47.792;8.724;2024-03-17T03:43:17;18.70;;;17.05;;
68212;SDS011;55035;47.792;8.724;2024-03-17T03:45:44;18.07;;;16.43;;
68212;SDS011;55035;47.792;8.724;2024-03-17T03:48:12;19.42;;;17.75;;
68212;SDS011;55035;47.792;8.724;2024-03-17T03:50:39;18.02;;;16.52;;
68212;SDS011;55035;47.792;8.724;2024-03-17T03:53:06;17.52;;;15.93;;
68212;SDS011;55035;47.792;8.724;2024-03-17T03:55:32;20.63;;;18.97;;
68212;SDS011;55035;47.792;8.724;2024-03-17T03:57:59;18.00;;;16.40;;
68212;SDS011;55035;47.792;8.724;2024-03-17T04:00:26;21.10;;;19.10;;
68212;SDS011;55035;47.792;8.724;2024-03-17T04:02:57;22.17;;;20.17;;
68212;SDS011;55035;47.792;8.724;2024-03-17T04:05:27;19.42;;;17.63;;
68212;SDS011;55035;47.792;8.724;2024-03-17T04:07:53;18.02;;;16.42;;
68212;SDS011;55035;47.792;8.724;2024-03-17T04:10:20;18.03;;;16.43;;
68212;SDS011;55035;47.792;8.724;2024-03-17T04:12:47;18.25;;;16.65;;
68212;SDS011;55035;47.792;8.724;2024-03-17T04:15:14;19.17;;;17.40;;
68212;SDS011;55035;47.792;8.724;2024-03-17T04:17:40;18.13;;;16.27;;
68212;SDS011;55035;47.792;8.724;2024-03-17T04:20:09;19.08;;;17.25;;
68212;SDS011;55035;47.792;8.724;2024-03-17T04:22:40;17.73;;;16.07;;
68212;SDS011;55035;47.792;8.724;2024-03-17T04:25:08;21.05;;;19.08;;
68212;SDS011;55035;47.792;8.724;2024-03-17T04:27:34;19.25;;;17.60;;
68212;SDS011;55035;47.792;8.724;2024-03-17T04:30:01;19.15;;;17.45;;
68212;SDS011;55035;47.792;8.724;2024-03-17T04:32:31;18.27;;;16.67;;
68212;SDS011;55035;47.792;8.724;2024-03-17T04:34:58;17.77;;;16.13;;
68212;SDS011;55035;47.792;8.724;2024-03-17T04:37:25;19.63;;;17.92;;
68212;SDS011;55035;47.792;8.724;2024-03-17T04:39:53;17.50;;;15.77;;
68212;SDS011;55035;47.792;8.724;2024-03-17T04:42:22;19.33;;;17.58;;
68212;SDS011;55035;47.792;8.724;2024-03-17T04:44:49;20.30;;;18.40;;
68212;SDS011;55035;47.792;8.724;2024-03-17T04:47:16;20.40;;;18.50;;
68212;SDS011;55035;47.792;8.724;2024-03-17T04:49:43;19.17;;;17.35;;
68212;SDS011;55035;47.792;8.724;2024-03-17T04:52:10;20.17;;;18.27;;
68212;SDS011;55035;47.792;8.724;2024-03-17T04:54:37;20.70;;;18.70;;
68212;SDS011;55035;47.792;8.724;2024-03-17T04:57:05;21.13;;;19.23;;
68212;SDS011;55035;47.792;8.724;2024-03-17T04:59:33;20.35;;;18.40;;
68212;SDS011;55035;47.792;8.724;2024-03-17T05:02:00;21.13;;;19.13;;
68212;SDS011;55035;47.792;8.724;2024-03-17T05:04:27;20.63;;;18.73;;
68212;SDS011;55035;47.792;8.724;2024-03-17T05:06:54;23.75;;;21.65;;
68212;SDS011;55035;47.792;8.724;2024-03-17T05:09:22;22.98;;;20.88;;
68212;SDS011;55035;47.792;8.724;2024-03-17T05:11:49;21.98;;;19.98;;
68212;SDS011;55035;47.792;8.724;2024-03-17T05:14:18;22.25;;;20.35;;
68212;SDS011;55035;47.792;8.724;2024-03-17T05:16:47;21.08;;;19.23;;
68212;SDS011;55035;47.792;8.724;2024-03-17T05:19:14;20.73;;;18.90;;
68212;SDS011;55035;47.792;8.724;2024-03-17T05:21:42;20.38;;;18.48;;
68212;SDS011;55035;47.792;8.724;2024-03-17T05:24:10;20.25;;;18.45;;
68212;SDS011;55035;47.792;8.724;2024-03-17T05:26:37;21.33;;;19.35;;
68212;SDS011;55035;47.792;8.724;2024-03-17T05:29:04;22.63;;;20.33;;
68212;SDS011;55035;47.792;8.724;2024-03-17T05:31:32;55.43;;;36.73;;
68212;SDS011;55035;47.792;8.724;2024-03-17T05:33:58;26.90;;;23.08;;
68212;SDS011;55035;47.792;8.724;2024-03-17T05:36:25;19.20;;;17.40;;
68212;SDS011;55035;47.792;8.724;2024-03-17T05:38:52;22.67;;;20.58;;
68212;SDS011;55035;47.792;8.724;2024-03-17T05:41:18;22.33;;;20.17;;
68212;SDS011;55035;47.792;8.724;2024-03-17T05:43:45;21.60;;;19.55;;
68212;SDS011;55035;47.792;8.724;2024-03-17T05:46:14;20.15;;;18.25;;
68212;SDS011;55035;47.792;8.724;2024-03-17T05:48:42;21.33;;;19.33;;
68212;SDS011;55035;47.792;8.724;2024-03-17T05:51:09;21.63;;;19.42;;
68212;SDS011;55035;47.792;8.724;2024-03-17T05:53:36;21.35;;;19.35;;
68212;SDS011;55035;47.792;8.724;2024-03-17T05:56:04;19.30;;;17.50;;
68212;SDS011;55035;47.792;8.724;2024-03-17T05:58:32;20.83;;;19.03;;
68212;SDS011;55035;47.792;8.724;2024-03-17T06:01:01;20.48;;;18.58;;
68212;SDS011;55035;47.792;8.724;2024-03-17T06:03:27;20.92;;;19.05;;
68212;SDS011;55035;47.792;8.724;2024-03-17T06:05:58;21.48;;;19.67;;
68212;SDS011;55035;47.792;8.724;2024-03-17T06:08:25;22.25;;;20.25;;
68212;SDS011;55035;47.792;8.724;2024-03-17T06:10:52;21.30;;;19.50;;
68212;SDS011;55035;47.792;8.724;2024-03-17T06:13:18;19.70;;;17.90;;
68212;SDS011;55035;47.792;8.724;2024-03-17T06:15:45;19.13;;;17.50;;
68212;SDS011;55035;47.792;8.724;2024-03-17T06:18:13;19.50;;;17.70;;
68212;SDS011;55035;47.792;8.724;2024-03-17T06:20:40;20.15;;;18.45;;
68212;SDS011;55035;47.792;8.724;2024-03-17T06:23:10;20.93;;;18.93;;
68212;SDS011;55035;47.792;8.724;2024-03-17T06:25:40;18.38;;;16.77;;
68212;SDS011;55035;47.792;8.724;2024-03-17T06:28:07;19.83;;;17.83;;
68212;SDS011;55035;47.792;8.724;2024-03-17T06:30:33;18.00;;;16.20;;
68212;SDS011;55035;47.792;8.724;2024-03-17T06:33:01;18.77;;;16.98;;
68212;SDS011;55035;47.792;8.724;2024-03-17T06:35:28;18.47;;;16.60;;
68212;SDS011;55035;47.792;8.724;2024-03-17T06:37:58;18.48;;;16.58;;
68212;SDS011;55035;47.792;8.724;2024-03-17T06:40:27;17.05;;;15.35;;
68212;SDS011;55035;47.792;8.724;2024-03-17T06:42:54;18.63;;;16.52;;
68212;SDS011;55035;47.792;8.724;2024-03-17T06:45:21;14.25;;;12.75;;
68212;SDS011;55035;47.792;8.724;2024-03-17T06:47:47;12.27;;;7.80;;
68212;SDS011;55035;47.792;8.724;2024-03-17T06:50:14;13.57;;;5.40;;
68212;SDS011;55035;47.792;8.724;2024-03-17T06:52:41;11.27;;;5.03;;
68212;SDS011;55035;47.792;8.724;2024-03-17T06:55:07;9.60;;;4.00;;
68212;SDS011;55035;47.792;8.724;2024-03-17T06:57:36;9.27;;;4.13;;
68212;SDS011;55035;47.792;8.724;2024-03-17T07:00:03;8.70;;;3.60;;
68212;SDS011;55035;47.792;8.724;2024-03-17T07:02:30;9.27;;;4.20;;
68212;SDS011;55035;47.792;8.724;2024-03-17T07:04:57;9.80;;;4.68;;
68212;SDS011;55035;47.792;8.724;2024-03-17T07:07:26;9.60;;;4.80;;
68212;SDS011;55035;47.792;8.724;2024-03-17T07:09:54;11.18;;;5.45;;
68212;SDS011;55035;47.792;8.724;2024-03-17T07:12:21;8.43;;;4.00;;
68212;SDS011;55035;47.792;8.724;2024-03-17T07:14:51;9.98;;;4.28;;
68212;SDS011;55035;47.792;8.724;2024-03-17T07:17:18;9.90;;;3.95;;
68212;SDS011;55035;47.792;8.724;2024-03-17T07:19:44;8.55;;;3.75;;
68212;SDS011;55035;47.792;8.724;2024-03-17T07:22:11;8.70;;;3.90;;
68212;SDS011;55035;47.792;8.724;2024-03-17T07:24:37;9.38;;;3.80;;
68212;SDS011;55035;47.792;8.724;2024-03-17T07:27:04;8.05;;;3.70;;
68212;SDS011;55035;47.792;8.724;2024-03-17T07:29:34;8.57;;;4.10;;
68212;SDS011;55035;47.792;8.724;2024-03-17T07:32:02;9.73;;;3.85;;
68212;SDS011;55035;47.792;8.724;2024-03-17T07:34:30;9.50;;;3.90;;
68212;SDS011;55035;47.792;8.724;2024-03-17T07:36:57;8.88;;;3.85;;
68212;SDS011;55035;47.792;8.724;2024-03-17T07:39:28;8.77;;;3.40;;
68212;SDS011;55035;47.792;8.724;2024-03-17T07:41:57;8.30;;;3.00;;
68212;SDS011;55035;47.792;8.724;2024-03-17T07:44:27;9.63;;;2.97;;
68212;SDS011;55035;47.792;8.724;2024-03-17T07:46:54;8.10;;;2.70;;
68212;SDS011;55035;47.792;8.724;2024-03-17T07:49:22;7.00;;;2.70;;
68212;SDS011;55035;47.792;8.724;2024-03-17T07:51:50;7.60;;;2.70;;
68212;SDS011;55035;47.792;8.724;2024-03-17T07:54:16;7.53;;;2.70;;
68212;SDS011;55035;47.792;8.724;2024-03-17T07:56:45;7.40;;;2.67;;
68212;SDS011;55035;47.792;8.724;2024-03-17T07:59:12;8.27;;;2.90;;
68212;SDS011;55035;47.792;8.724;2024-03-17T08:01:42;7.95;;;3.28;;
68212;SDS011;55035;47.792;8.724;2024-03-17T08:04:09;9.57;;;3.28;;
68212;SDS011;55035;47.792;8.724;2024-03-17T08:06:38;9.07;;;3.22;;
68212;SDS011;55035;47.792;8.724;2024-03-17T08:09:06;8.60;;;3.30;;
68212;SDS011;55035;47.792;8.724;2024-03-17T08:11:34;8.93;;;3.53;;
68212;SDS011;55035;47.792;8.724;2024-03-17T08:14:02;10.43;;;4.40;;
68212;SDS011;55035;47.792;8.724;2024-03-17T08:16:31;9.18;;;4.45;;
68212;SDS011;55035;47.792;8.724;2024-03-17T08:18:57;9.15;;;4.10;;
68212;SDS011;55035;47.792;8.724;2024-03-17T08:21:24;8.55;;;4.18;;
68212;SDS011;55035;47.792;8.724;2024-03-17T08:23:55;8.13;;;3.83;;
68212;SDS011;55035;47.792;8.724;2024-03-17T08:26:21;8.98;;;4.00;;
68212;SDS011;55035;47.792;8.724;2024-03-17T08:28:49;9.05;;;4.07;;
68212;SDS011;55035;47.792;8.724;2024-03-17T08:31:15;9.35;;;4.10;;
68212;SDS011;55035;47.792;8.724;2024-03-17T08:33:42;9.20;;;4.32;;
68212;SDS011;55035;47.792;8.724;2024-03-17T08:36:09;10.20;;;4.77;;
68212;SDS011;55035;47.792;8.724;2024-03-17T08:38:36;10.77;;;4.40;;
68212;SDS011;55035;47.792;8.724;2024-03-17T08:41:07;11.25;;;4.60;;
68212;SDS011;55035;47.792;8.724;2024-03-17T08:43:34;10.07;;;4.90;;
68212;SDS011;55035;47.792;8.724;2024-03-17T08:46:02;10.15;;;4.78;;
68212;SDS011;55035;47.792;8.724;2024-03-17T08:48:29;9.88;;;4.78;;
68212;SDS011;55035;47.792;8.724;2024-03-17T08:50:57;9.98;;;4.50;;
68212;SDS011;55035;47.792;8.724;2024-03-17T08:53:24;10.35;;;4.30;;
68212;SDS011;55035;47.792;8.724;2024-03-17T08:55:50;9.73;;;4.60;;
68212;SDS011;55035;47.792;8.724;2024-03-17T08:58:18;10.02;;;5.30;;
68212;SDS011;55035;47.792;8.724;2024-03-17T09:00:45;12.07;;;5.50;;
68212;SDS011;55035;47.792;8.724;2024-03-17T09:03:12;10.15;;;4.70;;
68212;SDS011;55035;47.792;8.724;2024-03-17T09:05:40;10.67;;;4.90;;
68212;SDS011;55035;47.792;8.724;2024-03-17T09:08:07;9.68;;;4.90;;
68212;SDS011;55035;47.792;8.724;2024-03-17T09:10:38;9.10;;;4.70;;
68212;SDS011;55035;47.792;8.724;2024-03-17T09:13:06;11.30;;;4.85;;
68212;SDS011;55035;47.792;8.724;2024-03-17T09:15:34;10.77;;;4.50;;
68212;SDS011;55035;47.792;8.724;2024-03-17T09:18:01;10.00;;;4.40;;
68212;SDS011;55035;47.792;8.724;2024-03-17T09:20:28;9.27;;;4.22;;
68212;SDS011;55035;47.792;8.724;2024-03-17T09:22:55;10.70;;;4.50;;
68212;SDS011;55035;47.792;8.724;2024-03-17T09:25:22;10.60;;;4.63;;
68212;SDS011;55035;47.792;8.724;2024-03-17T09:27:48;10.27;;;4.50;;
68212;SDS011;55035;47.792;8.724;2024-03-17T09:30:15;10.68;;;4.93;;
68212;SDS011;55035;47.792;8.724;2024-03-17T09:32:43;10.45;;;5.10;;
68212;SDS011;55035;47.792;8.724;2024-03-17T09:35:10;13.88;;;5.05;;
68212;SDS011;55035;47.792;8.724;2024-03-17T09:37:36;10.73;;;5.03;;
68212;SDS011;55035;47.792;8.724;2024-03-17T09:40:03;12.23;;;5.20;;
68212;SDS011;55035;47.792;8.724;2024-03-17T09:42:31;10.00;;;5.00;;
68212;SDS011;55035;47.792;8.724;2024-03-17T09:44:58;10.50;;;4.97;;
68212;SDS011;55035;47.792;8.724;2024-03-17T09:47:24;10.40;;;4.93;;
68212;SDS011;55035;47.792;8.724;2024-03-17T09:49:53;9.60;;;4.55;;
68212;SDS011;55035;47.792;8.724;2024-03-17T09:52:21;9.20;;;4.78;;
68212;SDS011;55035;47.792;8.724;2024-03-17T09:54:50;9.53;;;4.60;;
68212;SDS011;55035;47.792;8.724;2024-03-17T09:57:17;8.65;;;4.40;;
68212;SDS011;55035;47.792;8.724;2024-03-17T09:59:49;10.10;;;4.70;;
68212;SDS011;55035;47.792;8.724;2024-03-17T10:02:17;9.43;;;4.75;;
68212;SDS011;55035;47.792;8.724;2024-03-17T10:04:44;9.30;;;4.63;;
68212;SDS011;55035;47.792;8.724;2024-03-17T10:07:12;9.40;;;4.95;;
68212;SDS011;55035;47.792;8.724;2024-03-17T10:09:39;8.20;;;3.20;;
68212;SDS011;55035;47.792;8.724;2024-03-17T10:14:57;7.25;;;2.20;;
68212;SDS011;55035;47.792;8.724;2024-03-17T10:17:28;6.47;;;2.20;;
68212;SDS011;55035;47.792;8.724;2024-03-17T10:20:00;6.13;;;2.17;;
68212;SDS011;55035;47.792;8.724;2024-03-17T10:22:38;7.28;;;2.58;;
68212;SDS011;55035;47.792;8.724;2024-03-17T10:25:05;6.82;;;2.50;;
68212;SDS011;55035;47.792;8.724;2024-03-17T10:27:35;7.35;;;2.47;;
68212;SDS011;55035;47.792;8.724;2024-03-17T10:30:02;8.10;;;2.40;;
68212;SDS011;55035;47.792;8.724;2024-03-17T10:32:29;6.60;;;2.60;;
68212;SDS011;55035;47.792;8.724;2024-03-17T10:34:56;6.95;;;2.60;;
68212;SDS011;55035;47.792;8.724;2024-03-17T10:37:23;7.18;;;2.70;;
68212;SDS011;55035;47.792;8.724;2024-03-17T10:39:53;7.55;;;2.80;;
68212;SDS011;55035;47.792;8.724;2024-03-17T10:42:23;8.48;;;3.53;;
68212;SDS011;55035;47.792;8.724;2024-03-17T10:44:51;8.88;;;3.72;;
68212;SDS011;55035;47.792;8.724;2024-03-17T10:47:18;8.70;;;3.70;;
68212;SDS011;55035;47.792;8.724;2024-03-17T10:49:46;8.73;;;3.75;;
68212;SDS011;55035;47.792;8.724;2024-03-17T10:52:16;7.05;;;2.40;;
68212;SDS011;55035;47.792;8.724;2024-03-17T10:54:44;10.10;;;4.38;;
68212;SDS011;55035;47.792;8.724;2024-03-17T10:57:18;8.88;;;3.72;;
68212;SDS011;55035;47.792;8.724;2024-03-17T10:59:48;8.80;;;3.28;;
68212;SDS011;55035;47.792;8.724;2024-03-17T11:02:18;8.60;;;3.35;;
68212;SDS011;55035;47.792;8.724;2024-03-17T11:04:48;8.60;;;3.50;;
68212;SDS011;55035;47.792;8.724;2024-03-17T11:07:15;7.43;;;3.20;;
68212;SDS011;55035;47.792;8.724;2024-03-17T11:09:43;9.07;;;3.10;;
68212;SDS011;55035;47.792;8.724;2024-03-17T11:15:01;8.43;;;2.75;;
68212;SDS011;55035;47.792;8.724;2024-03-17T11:17:48;8.13;;;2.95;;
68212;SDS011;55035;47.792;8.724;2024-03-17T11:20:15;9.35;;;4.13;;
68212;SDS011;55035;47.792;8.724;2024-03-17T11:22:43;8.52;;;2.78;;
68212;SDS011;55035;47.792;8.724;2024-03-17T11:27:52;8.57;;;2.75;;
68212;SDS011;55035;47.792;8.724;2024-03-17T11:33:05;8.20;;;2.67;;
68212;SDS011;55035;47.792;8.724;2024-03-17T11:35:52;7.15;;;2.40;;
68212;SDS011;55035;47.792;8.724;2024-03-17T11:43:40;7.63;;;2.50;;
68212;SDS011;55035;47.792;8.724;2024-03-17T11:46:07;7.57;;;2.00;;
68212;SDS011;55035;47.792;8.724;2024-03-17T11:48:42;7.83;;;2.33;;
68212;SDS011;55035;47.792;8.724;2024-03-17T11:51:09;5.88;;;2.00;;
68212;SDS011;55035;47.792;8.724;2024-03-17T11:53:36;7.45;;;2.10;;
68212;SDS011;55035;47.792;8.724;2024-03-17T11:56:01;6.87;;;2.10;;
68212;SDS011;55035;47.792;8.724;2024-03-17T11:58:30;6.90;;;2.10;;
68212;SDS011;55035;47.792;8.724;2024-03-17T12:00:58;6.50;;;2.10;;
68212;SDS011;55035;47.792;8.724;2024-03-17T12:03:25;7.87;;;2.30;;
68212;SDS011;55035;47.792;8.724;2024-03-17T12:05:52;8.70;;;2.60;;
68212;SDS011;55035;47.792;8.724;2024-03-17T12:08:20;8.02;;;2.70;;
68212;SDS011;55035;47.792;8.724;2024-03-17T12:10:46;6.88;;;2.80;;
68212;SDS011;55035;47.792;8.724;2024-03-17T12:13:13;8.02;;;2.78;;
68212;SDS011;55035;47.792;8.724;2024-03-17T12:15:40;7.60;;;2.90;;
68212;SDS011;55035;47.792;8.724;2024-03-17T12:18:18;8.03;;;2.70;;
68212;SDS011;55035;47.792;8.724;2024-03-17T12:23:41;8.50;;;2.90;;
68212;SDS011;55035;47.792;8.724;2024-03-17T12:26:08;9.05;;;2.67;;
68212;SDS011;55035;47.792;8.724;2024-03-17T12:28:45;7.87;;;2.40;;
68212;SDS011;55035;47.792;8.724;2024-03-17T12:31:10;8.50;;;2.90;;
68212;SDS011;55035;47.792;8.724;2024-03-17T12:33:37;7.00;;;2.20;;
68212;SDS011;55035;47.792;8.724;2024-03-17T12:36:09;7.88;;;2.10;;
68212;SDS011;55035;47.792;8.724;2024-03-17T12:38:37;8.00;;;2.75;;
68212;SDS011;55035;47.792;8.724;2024-03-17T12:41:04;7.60;;;2.70;;
68212;SDS011;55035;47.792;8.724;2024-03-17T12:43:35;8.57;;;2.70;;
68212;SDS011;55035;47.792;8.724;2024-03-17T12:46:01;6.33;;;1.80;;
68212;SDS011;55035;47.792;8.724;2024-03-17T12:48:27;6.75;;;1.60;;
68212;SDS011;55035;47.792;8.724;2024-03-17T12:50:53;6.63;;;1.80;;
68212;SDS011;55035;47.792;8.724;2024-03-17T12:53:20;7.32;;;1.80;;
68212;SDS011;55035;47.792;8.724;2024-03-17T12:55:52;6.85;;;1.60;;
68212;SDS011;55035;47.792;8.724;2024-03-17T12:58:38;7.43;;;1.50;;
68212;SDS011;55035;47.792;8.724;2024-03-17T13:01:31;6.67;;;1.60;;
68212;SDS011;55035;47.792;8.724;2024-03-17T13:04:04;7.43;;;1.98;;
68212;SDS011;55035;47.792;8.724;2024-03-17T13:06:33;7.05;;;1.70;;
68212;SDS011;55035;47.792;8.724;2024-03-17T13:09:00;6.97;;;1.70;;
68212;SDS011;55035;47.792;8.724;2024-03-17T13:11:27;8.65;;;2.08;;
68212;SDS011;55035;47.792;8.724;2024-03-17T13:13:56;6.93;;;1.80;;
68212;SDS011;55035;47.792;8.724;2024-03-17T13:16:24;6.97;;;2.00;;
68212;SDS011;55035;47.792;8.724;2024-03-17T13:18:53;7.50;;;1.90;;
68212;SDS011;55035;47.792;8.724;2024-03-17T13:21:20;9.17;;;3.30;;
68212;SDS011;55035;47.792;8.724;2024-03-17T13:23:46;8.63;;;2.38;;
68212;SDS011;55035;47.792;8.724;2024-03-17T13:26:13;7.20;;;2.35;;
68212;SDS011;55035;47.792;8.724;2024-03-17T13:28:40;8.07;;;2.80;;
68212;SDS011;55035;47.792;8.724;2024-03-17T13:31:08;9.02;;;3.20;;
68212;SDS011;55035;47.792;8.724;2024-03-17T13:33:35;9.70;;;3.40;;
68212;SDS011;55035;47.792;8.724;2024-03-17T13:36:02;7.97;;;2.92;;
68212;SDS011;55035;47.792;8.724;2024-03-17T13:38:29;7.72;;;3.00;;
68212;SDS011;55035;47.792;8.724;2024-03-17T13:40:56;9.07;;;3.10;;
68212;SDS011;55035;47.792;8.724;2024-03-17T13:43:22;8.98;;;3.50;;
68212;SDS011;55035;47.792;8.724;2024-03-17T13:45:49;9.23;;;3.80;;
68212;SDS011;55035;47.792;8.724;2024-03-17T13:48:17;9.47;;;4.30;;
68212;SDS011;55035;47.792;8.724;2024-03-17T13:50:43;10.35;;;4.38;;
68212;SDS011;55035;47.792;8.724;2024-03-17T13:53:12;9.80;;;4.37;;
68212;SDS011;55035;47.792;8.724;2024-03-17T13:55:39;10.70;;;4.40;;
68212;SDS011;55035;47.792;8.724;2024-03-17T13:58:06;10.73;;;4.50;;
68212;SDS011;55035;47.792;8.724;2024-03-17T14:00:32;9.73;;;3.95;;
68212;SDS011;55035;47.792;8.724;2024-03-17T14:03:10;9.15;;;4.03;;
68212;SDS011;55035;47.792;8.724;2024-03-17T14:05:38;15.30;;;6.32;;
68212;SDS011;55035;47.792;8.724;2024-03-17T14:08:06;13.57;;;6.13;;
68212;SDS011;55035;47.792;8.724;2024-03-17T14:10:33;9.47;;;3.80;;
68212;SDS011;55035;47.792;8.724;2024-03-17T14:13:00;8.57;;;3.92;;
68212;SDS011;55035;47.792;8.724;2024-03-17T14:15:27;8.25;;;3.78;;
68212;SDS011;55035;47.792;8.724;2024-03-17T14:17:54;9.07;;;3.50;;
68212;SDS011;55035;47.792;8.724;2024-03-17T14:20:21;10.82;;;4.25;;
68212;SDS011;55035;47.792;8.724;2024-03-17T14:22:49;8.90;;;3.90;;
68212;SDS011;55035;47.792;8.724;2024-03-17T14:25:18;10.15;;;3.72;;
68212;SDS011;55035;47.792;8.724;2024-03-17T14:27:46;10.82;;;3.70;;
68212;SDS011;55035;47.792;8.724;2024-03-17T14:30:15;8.77;;;3.30;;
68212;SDS011;55035;47.792;8.724;2024-03-17T14:32:42;10.03;;;3.47;;
68212;SDS011;55035;47.792;8.724;2024-03-17T14:35:09;9.95;;;3.53;;
68212;SDS011;55035;47.792;8.724;2024-03-17T14:37:38;10.15;;;3.80;;
68212;SDS011;55035;47.792;8.724;2024-03-17T14:40:11;10.50;;;3.70;;
68212;SDS011;55035;47.792;8.724;2024-03-17T14:42:42;8.68;;;3.50;;
68212;SDS011;55035;47.792;8.724;2024-03-17T14:45:10;11.35;;;4.00;;
68212;SDS011;55035;47.792;8.724;2024-03-17T14:47:38;11.27;;;4.33;;
68212;SDS011;55035;47.792;8.724;2024-03-17T14:50:05;9.73;;;4.00;;
68212;SDS011;55035;47.792;8.724;2024-03-17T14:52:32;10.57;;;4.18;;
68212;SDS011;55035;47.792;8.724;2024-03-17T14:54:59;10.95;;;4.00;;